Time;durP1;ratioP1;P1;durP2;ratioP2;P2;SDS_P1;SDS_P2;PMS_P1;PMS_P2;Temp;Humidity;BMP_temperature;BMP_pressure;BME280_temperature;BME280_humidity;BME280_pressure;Samples;Min_cycle;Max_cycle;Signal;HPM_P1;HPM_P2
2022/11/27 00:00:51;;;;;;;19.83;10.57;;;;;;;6.26;59.92;102020.88;4942213;29;20036;-88
2022/11/27 00:03:19;;;;;;;19.20;10.13;;;;;;;6.41;59.64;102035.03;4940136;29;20120;-88
2022/11/27 00:06:14;;;;;;;19.08;10.10;;;;;;;6.60;59.17;102049.88;4937184;29;20126;-88
2022/11/27 00:08:47;;;;;;;20.88;10.73;;;;;;;6.46;59.78;102051.66;4936788;29;20150;-88
2022/11/27 00:11:40;;;;;;;20.10;10.43;;;;;;;6.33;59.41;102021.34;4933520;29;20127;-88
2022/11/27 00:14:08;;;;;;;19.35;10.50;;;;;;;6.24;59.66;102011.25;4946262;28;20484;-89
2022/11/27 00:16:35;;;;;;;18.60;9.80;;;;;;;6.34;59.96;102041.75;4916511;29;20039;-89
2022/11/27 00:19:01;;;;;;;20.13;10.75;;;;;;;6.19;59.94;102024.91;4952095;28;20047;-88
2022/11/27 00:21:35;;;;;;;21.50;9.85;;;;;;;5.98;60.30;102008.44;4936184;29;21770;-90
2022/11/27 00:24:05;;;;;;;18.27;9.73;;;;;;;6.10;60.08;102020.16;4945454;29;20052;-89
2022/11/27 00:26:30;;;;;;;19.48;10.10;;;;;;;6.24;59.85;102033.47;4948185;28;20356;-90
2022/11/27 00:28:56;;;;;;;21.02;10.93;;;;;;;6.04;60.44;102021.41;4947875;28;20063;-90
2022/11/27 00:31:28;;;;;;;19.67;10.65;;;;;;;6.23;60.48;102055.81;4937763;29;20035;-91
2022/11/27 00:33:55;;;;;;;21.02;10.82;;;;;;;6.14;60.56;102064.41;4905152;28;20078;-89
2022/11/27 00:36:21;;;;;;;19.60;10.55;;;;;;;6.28;60.61;102079.56;4956823;28;20070;-92
2022/11/27 00:38:48;;;;;;;19.05;10.27;;;;;;;6.16;60.38;102058.94;4954800;28;20070;-91
2022/11/27 00:41:36;;;;;;;20.02;10.55;;;;;;;6.30;60.41;102069.63;4936817;28;20593;-89
2022/11/27 00:44:02;;;;;;;19.95;10.43;;;;;;;6.28;60.62;102071.53;4944639;28;20130;-89
2022/11/27 00:46:33;;;;;;;19.65;10.32;;;;;;;6.26;60.61;102073.44;4943938;28;20034;-91
2022/11/27 00:49:03;;;;;;;20.95;10.65;;;;;;;6.09;60.31;102021.13;4955506;28;20416;-90
2022/11/27 00:51:29;;;;;;;19.40;10.40;;;;;;;6.17;60.64;102052.66;4963891;28;20031;-89
2022/11/27 00:53:55;;;;;;;20.77;10.95;;;;;;;6.14;60.98;102064.41;4943441;28;20038;-89
2022/11/27 00:56:23;;;;;;;20.95;10.60;;;;;;;6.26;60.78;102052.94;4932780;28;20492;-90
2022/11/27 00:58:50;;;;;;;21.13;11.07;;;;;;;6.05;60.96;102039.13;4941824;28;20483;-88
2022/11/27 01:01:19;;;;;;;21.85;10.90;;;;;;;6.12;60.72;102029.78;4939581;28;20042;-89
2022/11/27 01:03:45;;;;;;;21.23;10.95;;;;;;;6.20;60.89;102053.31;4928061;28;20027;-88
2022/11/27 01:06:12;;;;;;;19.85;10.32;;;;;;;5.95;61.50;102023.78;4922054;28;20042;-87
2022/11/27 01:08:38;;;;;;;21.63;11.35;;;;;;;5.95;61.57;102048.69;4957453;28;20034;-89
2022/11/27 01:11:04;;;;;;;21.15;11.07;;;;;;;5.76;61.88;102022.28;4945638;28;20137;-88
2022/11/27 01:13:32;;;;;;;20.80;11.18;;;;;;;5.66;61.88;101999.78;4963564;28;20042;-89
2022/11/27 01:16:03;;;;;;;20.00;11.02;;;;;;;6.10;61.71;102069.06;4963046;28;20491;-88
2022/11/27 01:18:29;;;;;;;23.98;11.48;;;;;;;6.02;61.67;102038.50;4929170;28;20051;-89
2022/11/27 01:20:56;;;;;;;22.05;11.07;;;;;;;6.02;62.00;102065.19;4932427;28;20764;-87
2022/11/27 01:23:23;;;;;;;21.70;10.95;;;;;;;6.10;61.78;102069.06;4927441;28;20062;-88
2022/11/27 01:25:48;;;;;;;21.92;11.40;;;;;;;5.98;61.67;102043.16;4946683;28;20689;-91
2022/11/27 01:28:15;;;;;;;22.75;11.57;;;;;;;6.01;62.56;102053.63;4966525;28;20499;-87
2022/11/27 01:30:43;;;;;;;23.02;11.80;;;;;;;5.73;63.50;102033.13;4965511;28;20492;-88
2022/11/27 01:33:09;;;;;;;21.33;11.35;;;;;;;5.80;63.45;102052.28;4975927;28;20050;-87
2022/11/27 01:35:34;;;;;;;20.27;10.88;;;;;;;5.54;63.25;102019.22;4972896;28;20098;-91
2022/11/27 01:38:00;;;;;;;23.58;11.10;;;;;;;5.54;63.38;102016.56;4964639;28;20054;-89
2022/11/27 01:40:26;;;;;;;19.73;10.88;;;;;;;5.81;63.60;102062.03;4962737;28;20078;-89
2022/11/27 01:42:53;;;;;;;19.67;10.30;;;;;;;5.84;63.57;102062.69;4940779;28;20787;-89
2022/11/27 01:45:21;;;;;;;21.55;11.05;;;;;;;5.57;63.49;102027.03;4958679;28;20540;-89
2022/11/27 01:47:57;;;;;;;20.58;11.10;;;;;;;5.47;63.94;102037.41;4944190;28;20075;-88
2022/11/27 01:50:32;;;;;;;19.40;10.38;;;;;;;5.60;63.91;102038.38;4945352;28;20046;-89
2022/11/27 01:53:04;;;;;;;24.95;12.90;;;;;;;5.72;64.02;102053.63;4944511;28;20047;-89
2022/11/27 01:55:34;;;;;;;19.83;10.50;;;;;;;5.77;63.93;102060.50;4955690;28;20470;-87
2022/11/27 01:58:05;;;;;;;20.13;10.63;;;;;;;5.52;63.54;101986.44;4949499;28;20041;-88
2022/11/27 02:00:34;;;;;;;20.83;10.32;;;;;;;5.81;63.17;102038.84;4940044;28;20113;-91
2022/11/27 02:03:00;;;;;;;21.48;10.77;;;;;;;5.88;63.18;102044.66;4969630;28;20071;-89
2022/11/27 02:05:28;;;;;;;19.58;10.93;;;;;;;5.78;63.88;102047.03;4938169;28;20175;-89
2022/11/27 02:08:01;;;;;;;22.50;11.15;;;;;;;5.83;63.06;102022.72;4950826;28;20499;-89
2022/11/27 02:10:40;;;;;;;20.23;10.95;;;;;;;5.76;63.32;102035.63;4952742;28;20035;-89
2022/11/27 02:13:13;;;;;;;20.27;10.50;;;;;;;5.66;63.53;102019.31;4951107;28;20487;-89
2022/11/27 02:16:04;;;;;;;20.35;9.75;;;;;;;5.97;63.67;102073.50;4940966;28;20118;-90
2022/11/27 02:18:43;;;;;;;20.65;11.13;;;;;;;5.97;63.54;102067.28;4924274;28;20393;-91
2022/11/27 02:21:31;;;;;;;22.73;10.93;;;;;;;5.78;64.09;102052.38;4952590;28;20062;-90
2022/11/27 02:24:41;;;;;;;22.98;10.73;;;;;;;5.77;63.59;102039.16;4968600;28;20030;-90
2022/11/27 02:27:31;;;;;;;20.83;10.68;;;;;;;5.98;64.09;102085.03;4963520;28;20126;-94
2022/11/27 02:29:57;;;;;;;20.50;10.73;;;;;;;5.67;64.02;102031.72;4970292;28;20372;-90
2022/11/27 02:32:44;;;;;;;19.98;10.98;;;;;;;5.91;64.40;102081.84;4932662;29;20070;-90
2022/11/27 02:35:15;;;;;;;19.02;10.77;;;;;;;6.02;64.19;102082.06;4939080;29;20115;-89
2022/11/27 02:38:20;;;;;;;19.88;10.32;;;;;;;5.94;64.35;102073.66;4951578;28;20034;-89
2022/11/27 02:40:50;;;;;;;19.83;10.45;;;;;;;5.81;64.22;102054.03;4918118;29;20051;-88
2022/11/27 02:43:22;;;;;;;19.40;9.68;;;;;;;5.87;64.43;102056.28;4943776;29;20039;-89
2022/11/27 02:45:48;;;;;;;19.92;9.88;;;;;;;5.63;64.59;102022.19;4932260;29;20032;-89
2022/11/27 02:48:16;;;;;;;18.58;9.75;;;;;;;5.80;64.34;102049.63;4974364;28;20130;-92
2022/11/27 02:50:44;;;;;;;19.08;10.02;;;;;;;5.89;64.66;102063.25;4976611;28;20023;-88
2022/11/27 02:53:12;;;;;;;21.70;10.10;;;;;;;5.91;64.29;102053.31;4958858;28;20049;-89
2022/11/27 02:55:38;;;;;;;20.20;9.77;;;;;;;5.98;64.22;102064.50;4948209;29;20035;-91
2022/11/27 02:58:06;;;;;;;18.45;9.23;;;;;;;5.80;64.15;102036.28;4952822;29;20562;-88
2022/11/27 03:00:33;;;;;;;18.15;9.63;;;;;;;5.85;64.03;102031.50;4960626;29;20039;-92
2022/11/27 03:03:02;;;;;;;17.08;9.02;;;;;;;5.74;63.92;102018.84;4948390;29;20027;-90
2022/11/27 03:05:30;;;;;;;19.52;9.60;;;;;;;5.71;64.41;102035.03;4956433;28;20039;-88
2022/11/27 03:08:03;;;;;;;16.58;8.55;;;;;;;5.89;64.02;102049.91;4972941;28;20039;-90
2022/11/27 03:10:30;;;;;;;20.20;9.63;;;;;;;5.79;64.12;102039.91;4959635;29;20042;-90
2022/11/27 03:12:57;;;;;;;20.88;9.55;;;;;;;5.73;64.00;102017.13;4930909;29;20041;-90
2022/11/27 03:15:24;;;;;;;19.77;9.45;;;;;;;5.88;63.99;102040.19;4957398;28;20038;-89
2022/11/27 03:17:58;;;;;;;19.92;9.50;;;;;;;5.97;64.48;102073.50;4958082;29;20063;-91
2022/11/27 03:20:35;;;;;;;19.17;9.98;;;;;;;5.66;64.33;102032.66;4975523;28;20051;-91
2022/11/27 03:23:01;;;;;;;18.40;9.75;;;;;;;6.04;64.22;102073.94;4941219;29;20051;-90
2022/11/27 03:25:29;;;;;;;21.02;10.27;;;;;;;5.96;64.10;102061.09;4939637;29;20408;-90
2022/11/27 03:28:05;;;;;;;22.05;10.43;;;;;;;5.55;64.60;102021.81;4929637;29;20042;-92
2022/11/27 03:30:34;;;;;;;;;;;;;;;5.83;64.58;102063.66;4947973;29;20046;-91
2022/11/27 03:33:09;;;;;;;20.70;10.40;;;;;;;5.62;65.27;102047.16;4962328;28;19957;-91
2022/11/27 03:35:36;;;;;;;19.70;10.23;;;;;;;5.49;64.89;102016.84;4940577;28;20035;-91
2022/11/27 03:38:02;;;;;;;19.00;9.70;;;;;;;5.77;65.01;102060.50;4949197;28;20026;-90
2022/11/27 03:40:33;;;;;;;20.00;10.15;;;;;;;5.72;65.04;102058.97;4955960;28;20035;-91
2022/11/27 03:43:14;;;;;;;23.05;10.40;;;;;;;5.36;65.32;102021.22;4951928;28;20046;-89
2022/11/27 03:45:57;;;;;;;21.63;10.25;;;;;;;5.23;65.61;102013.97;4939095;28;20039;-90
2022/11/27 03:48:36;;;;;;;20.02;10.38;;;;;;;5.41;66.20;102060.00;4934461;28;20129;-90
2022/11/27 03:51:48;;;;;;;22.17;10.52;;;;;;;5.35;65.73;102036.34;4935516;28;20046;-90
2022/11/27 03:54:22;;;;;;;21.77;10.63;;;;;;;5.40;66.00;102058.28;4941182;28;20043;-93
2022/11/27 03:57:01;;;;;;;20.20;9.88;;;;;;;5.37;66.21;102066.47;4945956;28;20058;-91
2022/11/27 03:59:29;;;;;;;20.08;10.75;;;;;;;5.34;65.95;102049.78;4943156;28;20055;-90
2022/11/27 04:01:58;;;;;;;19.73;9.63;;;;;;;5.38;65.89;102043.31;4932998;28;20404;-90
2022/11/27 04:04:29;;;;;;;21.55;10.50;;;;;;;5.11;66.17;102012.03;4954590;28;20038;-90
2022/11/27 04:06:55;;;;;;;21.55;10.32;;;;;;;5.39;66.15;102064.56;4970049;28;20023;-93
2022/11/27 04:09:24;;;;;;;21.73;10.80;;;;;;;5.14;66.54;102046.50;4953863;28;20410;-91
2022/11/27 04:11:50;;;;;;;21.60;10.45;;;;;;;5.06;66.51;102023.00;4936376;28;20046;-91
2022/11/27 04:14:19;;;;;;;21.90;10.68;;;;;;;5.13;66.67;102036.81;4973012;28;20038;-92
2022/11/27 04:16:45;;;;;;;20.55;10.85;;;;;;;4.95;67.04;102020.09;4937145;28;20452;-92
2022/11/27 04:19:14;;;;;;;22.98;11.38;;;;;;;5.14;66.84;102043.84;4951230;28;20128;-92
2022/11/27 04:21:41;;;;;;;24.23;11.13;;;;;;;4.89;67.20;102025.78;4967260;28;20046;-91
2022/11/27 04:24:26;;;;;;;22.02;10.85;;;;;;;5.05;67.25;102049.72;4947495;28;20430;-93
2022/11/27 04:26:53;;;;;;;20.48;11.50;;;;;;;5.07;67.85;102058.50;4935105;28;20039;-92
2022/11/27 04:29:19;;;;;;;20.40;10.93;;;;;;;4.64;67.67;101994.41;4937471;28;20047;-92
2022/11/27 04:31:48;;;;;;;;;;;;;;;5.00;67.63;102052.66;4949965;28;20507;-92
2022/11/27 04:34:13;;;;;;;23.10;10.52;;;;;;;4.58;68.24;102024.91;4936493;28;20401;-91
2022/11/27 04:36:41;;;;;;;22.38;11.00;;;;;;;4.80;68.04;102043.19;4949466;28;20089;-92
2022/11/27 04:39:16;;;;;;;25.52;11.27;;;;;;;4.67;68.78;102052.00;4954475;28;20054;-92
2022/11/27 04:41:42;;;;;;;;;;;;;;;4.74;68.96;102061.34;4957732;28;20031;-92
2022/11/27 04:44:12;;;;;;;21.02;10.63;;;;;;;4.63;68.91;102054.81;4968979;28;19918;-91
2022/11/27 04:46:56;;;;;;;24.13;10.90;;;;;;;4.64;69.13;102069.84;4929566;28;20039;-93
2022/11/27 04:49:22;;;;;;;24.63;11.30;;;;;;;4.61;69.25;102074.50;4924140;28;20474;-92
2022/11/27 04:51:51;;;;;;;29.75;12.30;;;;;;;4.64;69.07;102074.34;4956423;28;20097;-93
2022/11/27 04:54:22;;;;;;;24.00;11.98;;;;;;;4.22;70.21;102030.56;4963147;28;20137;-93
2022/11/27 04:56:47;;;;;;;23.95;11.10;;;;;;;4.23;69.51;102017.13;4951840;28;20058;-92
2022/11/27 04:59:13;;;;;;;23.40;11.90;;;;;;;4.31;69.90;102051.34;4923753;28;20154;-92
2022/11/27 05:01:39;;;;;;;23.17;11.25;;;;;;;4.26;69.99;102044.53;4922386;28;20031;-92
2022/11/27 05:04:05;;;;;;;26.05;11.68;;;;;;;4.23;70.30;102057.06;4958674;28;20050;-90
2022/11/27 05:06:32;;;;;;;27.67;11.77;;;;;;;4.23;70.33;102053.56;4988822;28;20038;-92
2022/11/27 05:09:01;;;;;;;26.50;12.43;;;;;;;3.95;70.77;102011.66;4957035;28;20126;-92
2022/11/27 05:11:28;;;;;;;23.90;11.93;;;;;;;4.35;70.10;102074.16;4969559;28;20039;-92
2022/11/27 05:14:15;;;;;;;24.92;11.77;;;;;;;4.21;70.41;102040.34;4952184;28;20035;-91
2022/11/27 05:16:43;;;;;;;23.52;11.70;;;;;;;4.31;70.21;102050.44;4964953;28;20133;-91
2022/11/27 05:19:12;;;;;;;25.63;12.07;;;;;;;4.28;69.85;102035.50;4922675;28;20121;-91
2022/11/27 05:21:38;;;;;;;24.05;11.52;;;;;;;4.14;69.90;102014.13;4921975;28;20042;-89
2022/11/27 05:24:04;;;;;;;25.15;11.80;;;;;;;4.51;69.77;102071.50;4953217;28;20031;-90
2022/11/27 05:26:30;;;;;;;22.42;11.80;;;;;;;4.51;69.92;102081.31;4965252;28;20448;-90
2022/11/27 05:28:57;;;;;;;24.03;12.07;;;;;;;4.57;69.74;102062.31;4951104;28;20070;-90
2022/11/27 05:31:29;;;;;;;22.10;11.27;;;;;;;4.35;69.67;102038.69;4938516;28;20309;-90
2022/11/27 05:33:57;;;;;;;21.55;11.43;;;;;;;4.40;69.63;102053.47;4951581;28;20093;-92
2022/11/27 05:36:26;;;;;;;26.85;11.63;;;;;;;4.39;69.41;102035.78;4942330;28;20047;-91
2022/11/27 05:38:52;;;;;;;24.73;12.07;;;;;;;4.56;68.93;102065.91;4966821;28;20066;-92
2022/11/27 05:41:18;;;;;;;;;;;;;;;4.84;68.96;102098.00;4969684;28;20067;-91
2022/11/27 05:43:44;;;;;;;21.88;10.43;;;;;;;4.77;68.70;102085.13;4977066;28;19958;-91
2022/11/27 05:46:16;;;;;;;23.08;11.63;;;;;;;4.96;68.49;102103.56;4940621;28;20417;-89
2022/11/27 05:48:49;;;;;;;27.45;12.73;;;;;;;4.65;68.44;102070.72;4971381;28;20042;-90
2022/11/27 05:51:15;;;;;;;21.50;11.30;;;;;;;4.76;68.02;102062.97;4974999;28;20045;-91
2022/11/27 05:53:41;;;;;;;;;;;;;;;4.96;68.21;102096.44;4958935;28;20134;-91
2022/11/27 05:56:08;;;;;;;;;;;;;;;4.94;68.21;102086.81;4974217;28;20363;-92
2022/11/27 05:58:38;;;;;;;23.00;10.88;;;;;;;4.84;68.40;102095.34;4968529;28;19969;-91
2022/11/27 06:01:08;;;;;;;25.10;11.82;;;;;;;4.75;68.27;102055.03;4954800;28;20042;-91
2022/11/27 06:03:43;;;;;;;20.92;10.48;;;;;;;5.09;67.63;102080.59;4963736;28;20034;-93
2022/11/27 06:06:11;;;;;;;20.30;9.82;;;;;;;5.09;66.81;102061.94;4943119;28;20118;-90
2022/11/27 06:08:39;;;;;;;21.88;9.35;;;;;;;5.04;66.06;102056.88;4938923;28;20038;-92
2022/11/27 06:11:10;;;;;;;19.13;10.00;;;;;;;5.24;65.30;102066.38;4954850;28;20141;-90
2022/11/27 06:13:37;;;;;;;36.10;10.02;;;;;;;4.96;65.55;102037.78;4951202;28;20061;-91
2022/11/27 06:16:07;;;;;;;19.88;9.02;;;;;;;4.91;65.34;102023.03;4955555;28;20049;-92
2022/11/27 06:18:40;;;;;;;20.42;9.40;;;;;;;5.29;65.07;102082.94;4943741;28;20055;-92
2022/11/27 06:21:09;;;;;;;18.83;9.00;;;;;;;5.17;64.76;102064.97;4954521;28;20022;-91
2022/11/27 06:23:35;;;;;;;17.92;8.85;;;;;;;5.23;64.76;102063.78;4954814;28;20491;-91
2022/11/27 06:26:24;;;;;;;18.33;9.48;;;;;;;5.44;64.21;102058.94;4938411;28;20171;-90
2022/11/27 06:28:51;;;;;;;19.73;9.20;;;;;;;5.41;63.47;102049.34;4937024;28;20050;-90
2022/11/27 06:31:19;;;;;;;19.45;9.50;;;;;;;5.68;63.24;102070.78;4972824;28;20574;-89
2022/11/27 06:33:55;;;;;;;22.02;9.77;;;;;;;5.32;63.63;102041.88;4979883;28;20066;-90
2022/11/27 06:36:21;;;;;;;17.42;8.73;;;;;;;5.77;63.41;102097.84;4948700;28;20030;-90
2022/11/27 06:38:48;;;;;;;19.20;8.43;;;;;;;5.50;62.91;102031.88;4971125;28;20211;-93
2022/11/27 06:41:20;;;;;;;17.98;9.23;;;;;;;5.89;62.44;102094.41;4970203;28;20091;-92
2022/11/27 06:43:46;;;;;;;21.42;10.48;;;;;;;5.60;62.97;102065.06;4967285;28;20400;-92
2022/11/27 06:46:29;;;;;;;20.45;9.82;;;;;;;6.15;62.09;102105.31;4947695;29;20041;-91
2022/11/27 06:49:00;;;;;;;18.52;9.35;;;;;;;6.20;61.56;102079.16;4970859;29;20023;-92
2022/11/27 06:51:30;;;;;;;16.20;8.15;;;;;;;6.19;61.27;102082.81;4972193;28;20051;-92
2022/11/27 06:53:56;;;;;;;20.38;9.75;;;;;;;6.19;61.02;102080.13;4959749;28;20038;-91
2022/11/27 06:56:26;;;;;;;15.48;8.20;;;;;;;6.34;60.37;102068.44;4934333;28;20039;-93
2022/11/27 06:58:54;;;;;;;15.85;8.57;;;;;;;6.55;60.11;102099.16;4951158;29;20054;-92
2022/11/27 07:01:33;;;;;;;17.27;8.68;;;;;;;6.68;59.71;102096.53;4948845;28;20492;-94
2022/11/27 07:03:58;;;;;;;19.90;9.63;;;;;;;6.90;59.93;102128.03;4956832;28;20105;-90
2022/11/27 07:06:30;;;;;;;20.23;10.23;;;;;;;6.97;59.90;102123.13;4929495;29;20039;-91
2022/11/27 07:09:04;;;;;;;22.45;10.52;;;;;;;7.07;59.44;102128.72;4962592;28;20040;-90
2022/11/27 07:11:38;;;;;;;22.08;10.55;;;;;;;7.19;58.84;102122.56;4943097;29;20063;-90
2022/11/27 07:14:04;;;;;;;24.00;11.55;;;;;;;6.97;58.94;102088.38;4949385;28;20091;-93
2022/11/27 07:16:42;;;;;;;23.13;11.82;;;;;;;7.22;58.65;102103.63;4955486;28;20380;-91
2022/11/27 07:19:10;;;;;;;18.40;9.75;;;;;;;7.26;57.56;102099.81;4955022;28;20110;-89
2022/11/27 07:21:37;;;;;;;18.92;9.52;;;;;;;7.35;57.62;102099.19;4946985;28;20027;-89
2022/11/27 07:24:08;;;;;;;16.48;8.75;;;;;;;7.70;56.99;102109.28;4955581;28;20038;-90
2022/11/27 07:26:34;;;;;;;17.70;8.55;;;;;;;7.78;56.17;102095.34;4938404;29;20114;-90
2022/11/27 07:29:00;;;;;;;15.07;7.82;;;;;;;7.86;55.66;102101.00;4950400;29;20031;-92
2022/11/27 07:31:26;;;;;;;;;;;;;;;7.97;55.73;102122.53;4948892;28;20045;-89
2022/11/27 07:33:52;;;;;;;14.60;7.10;;;;;;;7.87;55.44;102096.53;4946273;28;19934;-91
2022/11/27 07:36:21;;;;;;;12.90;6.45;;;;;;;8.24;54.64;102117.03;4957299;28;20160;-89
2022/11/27 07:38:47;;;;;;;14.20;6.97;;;;;;;8.32;53.62;102088.84;4963245;28;20122;-91
2022/11/27 07:41:13;;;;;;;19.17;8.75;;;;;;;8.69;53.25;102121.03;4954788;28;20085;-92
2022/11/27 07:43:46;;;;;;;13.20;7.05;;;;;;;8.72;52.68;102110.06;4976809;28;20031;-91
2022/11/27 07:46:16;;;;;;;10.63;6.18;;;;;;;8.86;51.70;102070.50;4949863;28;20054;-93
2022/11/27 07:49:13;;;;;;;15.00;6.85;;;;;;;9.46;50.79;102111.59;4944161;28;20039;-94
2022/11/27 07:52:26;;;;;;;11.75;5.80;;;;;;;9.59;49.17;102107.94;4979271;28;20054;-94
2022/11/27 07:55:22;;;;;;;10.63;5.88;;;;;;;9.72;48.88;102089.91;4967780;28;20078;-95
2022/11/27 07:57:49;;;;;;;10.48;5.60;;;;;;;9.75;48.16;102062.78;4971192;28;20031;-91
2022/11/27 08:00:17;;;;;;;13.68;5.97;;;;;;;10.38;47.19;102124.97;4954888;28;20039;-91
2022/11/27 08:02:46;;;;;;;11.70;5.97;;;;;;;10.43;46.28;102073.53;4975138;28;20098;-91
2022/11/27 08:05:14;;;;;;;12.15;6.00;;;;;;;10.68;45.73;102099.28;4965800;29;20047;-90
2022/11/27 08:07:41;;;;;;;12.27;6.55;;;;;;;11.28;45.59;102132.78;4985589;28;20058;-89
2022/11/27 08:10:08;;;;;;;11.95;6.53;;;;;;;11.49;44.09;102116.63;4972305;28;20088;-93
2022/11/27 08:12:37;;;;;;;10.18;5.32;;;;;;;11.22;43.72;102081.31;4988217;28;20127;-93
2022/11/27 08:15:06;;;;;;;12.38;6.65;;;;;;;11.06;43.85;102082.59;4962790;28;20065;-90
2022/11/27 08:17:33;;;;;;;11.73;6.70;;;;;;;11.38;44.45;102119.41;4961802;29;20046;-90
2022/11/27 08:20:00;;;;;;;14.65;6.80;;;;;;;11.81;43.86;102126.47;4957656;28;20062;-86
2022/11/27 08:22:28;;;;;;;12.20;6.07;;;;;;;12.06;43.30;102095.56;4972482;28;20502;-87
2022/11/27 08:24:55;;;;;;;10.55;5.82;;;;;;;12.23;41.44;102062.56;4961284;28;20053;-92
2022/11/27 08:27:40;;;;;;;11.13;5.90;;;;;;;12.66;42.09;102068.59;4979545;28;20049;-93
2022/11/27 08:30:08;;;;;;;13.32;6.75;;;;;;;13.67;40.33;102109.66;4964763;28;20193;-90
2022/11/27 08:32:38;;;;;;;10.95;6.50;;;;;;;13.94;38.73;102103.47;4958918;28;20074;-89
2022/11/27 08:35:08;;;;;;;10.68;6.75;;;;;;;14.45;38.41;102102.09;4970382;28;20038;-90
2022/11/27 08:37:40;;;;;;;11.50;7.20;;;;;;;13.96;38.81;102089.81;4967992;28;20042;-88
2022/11/27 08:40:06;;;;;;;11.48;6.50;;;;;;;14.18;38.20;102093.97;4971866;28;20031;-89
2022/11/27 08:42:32;;;;;;;10.90;6.72;;;;;;;13.76;38.84;102108.78;4972249;28;20030;-87
2022/11/27 08:44:58;;;;;;;9.65;6.05;;;;;;;14.02;39.08;102117.06;4953302;28;20038;-87
2022/11/27 08:47:23;;;;;;;13.70;7.47;;;;;;;13.94;38.86;102100.75;4966307;28;20038;-88
2022/11/27 08:49:49;;;;;;;10.50;6.20;;;;;;;14.51;37.88;102101.47;4954158;28;20116;-88
2022/11/27 08:52:15;;;;;;;16.85;6.90;;;;;;;14.99;37.40;102105.72;4969965;28;20042;-91
2022/11/27 08:54:40;;;;;;;11.23;5.80;;;;;;;14.49;37.80;102076.44;4967297;28;20026;-92
2022/11/27 08:57:07;;;;;;;9.57;6.15;;;;;;;15.22;35.88;102064.63;4955083;28;20031;-89
2022/11/27 08:59:33;;;;;;;9.27;5.47;;;;;;;15.54;35.13;102076.69;4956481;28;20050;-91
2022/11/27 09:02:02;;;;;;;8.73;5.10;;;;;;;15.33;34.67;102067.06;4949896;28;20094;-89
2022/11/27 09:04:29;;;;;;;9.57;5.20;;;;;;;15.59;34.61;102063.50;4971554;28;20038;-89
2022/11/27 09:07:28;;;;;;;;;;;;;;;;;;;;;
2022/11/27 09:09:58;;;;;;;8.75;5.60;;;;;;;17.18;32.70;102077.28;4976949;28;20093;-88
2022/11/27 09:12:24;;;;;;;10.80;5.68;;;;;;;17.93;31.52;102075.19;4925197;28;20109;-90
2022/11/27 09:14:52;;;;;;;9.15;6.15;;;;;;;18.07;30.46;102050.94;4967678;28;20031;-93
2022/11/27 09:17:18;;;;;;;10.05;6.20;;;;;;;18.73;30.36;102062.31;4963849;28;20027;-89
2022/11/27 09:19:44;;;;;;;;;;;;;;;19.97;28.30;102063.78;4971501;28;20436;-91
2022/11/27 09:22:11;;;;;;;9.00;4.55;;;;;;;19.81;27.76;102069.44;4968978;28;19922;-94
2022/11/27 09:24:40;;;;;;;7.72;4.53;;;;;;;19.87;27.67;102043.28;4973830;28;20448;-91
2022/11/27 09:27:06;;;;;;;8.32;5.25;;;;;;;19.37;28.74;102032.88;4970559;28;20047;-91
2022/11/27 09:29:35;;;;;;;9.32;5.03;;;;;;;19.77;27.64;102046.28;4970380;28;20043;-91
2022/11/27 09:32:05;;;;;;;8.27;4.63;;;;;;;19.23;27.97;102032.84;4978768;28;20049;-91
2022/11/27 09:34:33;;;;;;;7.32;4.50;;;;;;;19.81;27.13;102028.50;4960648;28;20143;-94
2022/11/27 09:36:58;;;;;;;6.50;3.95;;;;;;;18.84;28.14;102020.22;4976696;28;20029;-93
2022/11/27 09:39:31;;;;;;;9.77;5.32;;;;;;;19.97;26.25;102031.03;4957330;28;20109;-92
2022/11/27 09:42:03;;;;;;;6.65;3.78;;;;;;;19.35;26.80;102029.47;4965285;28;20448;-93
2022/11/27 09:44:52;;;;;;;6.30;4.18;;;;;;;19.50;26.92;102047.72;4973218;28;20125;-92
2022/11/27 09:47:29;;;;;;;10.77;4.38;;;;;;;19.71;26.58;102045.13;4923466;28;20058;-95
2022/11/27 09:50:29;;;;;;;8.50;3.53;;;;;;;18.81;26.92;101987.91;4974088;28;20415;-92
2022/11/27 09:53:05;;;;;;;7.82;4.55;;;;;;;18.71;27.72;102009.94;4952380;28;20043;-92
2022/11/27 09:55:43;;;;;;;7.93;3.50;;;;;;;18.42;27.63;102000.56;4941716;28;20066;-96
2022/11/27 09:58:40;;;;;;;6.93;3.85;;;;;;;18.01;28.64;102025.31;4974599;28;20089;-95
2022/11/27 10:01:14;;;;;;;6.78;3.85;;;;;;;17.54;29.56;101985.34;4967043;28;20394;-90
2022/11/27 10:03:40;;;;;;;8.85;4.60;;;;;;;18.27;28.84;102019.56;4971326;28;20047;-91
2022/11/27 10:07:03;;;;;;;6.68;4.20;;;;;;;19.32;27.98;102013.50;4951407;28;20422;-91
2022/11/27 10:09:34;;;;;;;7.40;4.60;;;;;;;18.89;28.14;102017.81;4896099;29;20126;-92
2022/11/27 10:12:24;;;;;;;8.77;4.10;;;;;;;18.81;28.00;101986.03;4955622;28;20125;-91
2022/11/27 10:15:11;;;;;;;9.02;5.38;;;;;;;19.27;27.42;102012.34;4956194;28;20038;-94
2022/11/27 10:18:05;;;;;;;7.43;4.15;;;;;;;18.57;27.73;101992.50;4969600;28;20038;-92
2022/11/27 10:20:55;;;;;;;7.20;4.13;;;;;;;17.81;28.73;101970.47;4984385;28;20050;-92
2022/11/27 10:23:53;;;;;;;7.20;4.10;;;;;;;17.97;28.65;102007.63;4967333;28;20054;-92
2022/11/27 10:26:32;;;;;;;7.20;3.70;;;;;;;17.62;29.42;102003.50;4974435;28;20049;-93
2022/11/27 10:29:19;;;;;;;9.57;3.80;;;;;;;17.00;29.65;101956.06;4968597;28;20036;-91
2022/11/27 10:32:16;;;;;;;7.07;3.75;;;;;;;16.98;30.52;101976.28;4983826;28;20102;-91
2022/11/27 10:34:43;;;;;;;6.63;3.83;;;;;;;17.16;30.68;101982.38;4970097;28;20062;-90
2022/11/27 10:37:37;;;;;;;8.15;4.32;;;;;;;17.16;31.01;101948.91;4988675;28;20369;-91
2022/11/27 10:40:27;;;;;;;7.57;3.92;;;;;;;17.02;30.76;101981.19;4961143;28;20090;-91
2022/11/27 10:43:19;;;;;;;6.93;3.88;;;;;;;16.52;31.77;101973.19;4938466;28;20089;-92
2022/11/27 10:45:55;;;;;;;8.43;3.90;;;;;;;15.56;33.14;101993.34;4942834;28;20038;-93
2022/11/27 10:48:28;;;;;;;7.35;4.00;;;;;;;15.34;33.77;101998.31;4959764;28;20039;-92
2022/11/27 10:51:35;;;;;;;6.63;3.75;;;;;;;15.51;33.88;101979.44;4963691;28;20041;-95
2022/11/27 10:54:28;;;;;;;8.50;4.40;;;;;;;15.65;33.70;101964.44;4966802;28;20038;-95
2022/11/27 10:57:15;;;;;;;8.18;3.97;;;;;;;15.61;33.51;101981.00;4951343;28;20121;-92
2022/11/27 11:00:06;;;;;;;9.52;5.13;;;;;;;14.94;34.49;101977.22;4968087;28;20035;-91
2022/11/27 11:03:04;;;;;;;10.38;5.03;;;;;;;14.75;35.00;101941.22;4963001;28;20043;-91
2022/11/27 11:05:32;;;;;;;7.88;4.35;;;;;;;14.59;35.33;101984.38;4948120;28;20053;-93
2022/11/27 11:08:30;;;;;;;8.20;5.00;;;;;;;14.43;35.94;101973.38;4970941;28;20050;-93
2022/11/27 11:11:01;;;;;;;7.80;4.25;;;;;;;14.42;35.59;101983.34;4940958;29;20047;-94
2022/11/27 11:13:40;;;;;;;10.07;4.05;;;;;;;14.08;36.53;101981.28;4963647;28;20118;-90
2022/11/27 11:16:29;;;;;;;6.75;4.15;;;;;;;14.05;37.47;101943.75;4977774;28;20046;-92
2022/11/27 11:19:39;;;;;;;7.85;4.00;;;;;;;13.91;36.73;101941.56;4943662;28;20412;-94
2022/11/27 11:22:30;;;;;;;6.72;3.78;;;;;;;13.13;37.84;101920.25;4964276;28;20113;-96
2022/11/27 11:25:33;;;;;;;8.05;3.97;;;;;;;13.33;38.35;101963.44;4945762;28;20078;-94
2022/11/27 11:28:13;;;;;;;7.10;3.85;;;;;;;13.36;37.94;101965.84;4963433;28;20102;-92
2022/11/27 11:31:05;;;;;;;7.57;3.80;;;;;;;12.87;39.12;101963.22;4968897;28;21352;-95
2022/11/27 11:34:01;;;;;;;7.40;3.88;;;;;;;12.58;39.48;101941.66;4963675;28;20062;-95
2022/11/27 11:36:29;;;;;;;8.05;4.25;;;;;;;12.31;40.12;101926.19;4930519;29;20054;-89
2022/11/27 11:39:20;;;;;;;9.25;4.82;;;;;;;12.57;39.75;101956.13;4926119;29;20062;-90
2022/11/27 11:41:47;;;;;;;7.15;4.03;;;;;;;12.62;39.67;101961.97;4941507;29;20035;-95
2022/11/27 11:44:28;;;;;;;6.40;3.70;;;;;;;12.17;39.83;101916.66;4939539;29;20353;-95
2022/11/27 11:46:58;;;;;;;7.80;3.65;;;;;;;12.27;39.64;101931.03;4937186;29;20046;-94
2022/11/27 11:49:32;;;;;;;9.70;4.18;;;;;;;12.41;40.26;101973.75;4911033;29;20088;-93
2022/11/27 11:52:12;;;;;;;7.22;3.75;;;;;;;12.37;39.88;101953.44;4954972;29;20083;-94